sensor_id;sensor_type;location;lat;lon;timestamp;P1;durP1;ratioP1;P2;durP2;ratioP2
48516;SDS011;34310;51.904;4.256;2023-01-24T00:00:57;9.02;;;8.13;;
48516;SDS011;34310;51.904;4.256;2023-01-24T00:03:26;9.32;;;8.43;;
48516;SDS011;34310;51.904;4.256;2023-01-24T00:05:53;9.27;;;8.32;;
48516;SDS011;34310;51.904;4.256;2023-01-24T00:08:20;9.38;;;8.38;;
48516;SDS011;34310;51.904;4.256;2023-01-24T00:11:00;9.20;;;8.40;;
48516;SDS011;34310;51.904;4.256;2023-01-24T00:13:30;9.00;;;8.10;;
48516;SDS011;34310;51.904;4.256;2023-01-24T00:16:17;9.60;;;8.70;;
48516;SDS011;34310;51.904;4.256;2023-01-24T00:18:46;9.20;;;8.30;;
48516;SDS011;34310;51.904;4.256;2023-01-24T00:21:16;9.60;;;8.70;;
48516;SDS011;34310;51.904;4.256;2023-01-24T00:23:49;9.20;;;8.20;;
48516;SDS011;34310;51.904;4.256;2023-01-24T00:26:18;9.05;;;8.23;;
48516;SDS011;34310;51.904;4.256;2023-01-24T00:28:47;8.85;;;8.02;;
48516;SDS011;34310;51.904;4.256;2023-01-24T00:31:15;8.20;;;7.28;;
48516;SDS011;34310;51.904;4.256;2023-01-24T00:33:43;10.35;;;9.35;;
48516;SDS011;34310;51.904;4.256;2023-01-24T00:36:10;9.40;;;8.27;;
48516;SDS011;34310;51.904;4.256;2023-01-24T00:38:38;8.90;;;7.95;;
48516;SDS011;34310;51.904;4.256;2023-01-24T00:41:06;9.52;;;8.52;;
48516;SDS011;34310;51.904;4.256;2023-01-24T00:43:33;9.30;;;8.32;;
48516;SDS011;34310;51.904;4.256;2023-01-24T00:46:01;9.30;;;8.50;;
48516;SDS011;34310;51.904;4.256;2023-01-24T00:48:31;8.93;;;8.13;;
48516;SDS011;34310;51.904;4.256;2023-01-24T00:50:58;9.25;;;8.40;;
48516;SDS011;34310;51.904;4.256;2023-01-24T00:53:25;9.23;;;8.32;;
48516;SDS011;34310;51.904;4.256;2023-01-24T00:55:53;9.18;;;8.27;;
48516;SDS011;34310;51.904;4.256;2023-01-24T00:58:21;9.35;;;8.45;;
48516;SDS011;34310;51.904;4.256;2023-01-24T01:00:49;9.57;;;8.57;;
48516;SDS011;34310;51.904;4.256;2023-01-24T01:03:17;9.15;;;8.20;;
48516;SDS011;34310;51.904;4.256;2023-01-24T01:05:45;9.52;;;8.55;;
48516;SDS011;34310;51.904;4.256;2023-01-24T01:08:12;8.52;;;7.72;;
48516;SDS011;34310;51.904;4.256;2023-01-24T01:10:40;9.13;;;8.32;;
48516;SDS011;34310;51.904;4.256;2023-01-24T01:13:08;9.18;;;8.27;;
48516;SDS011;34310;51.904;4.256;2023-01-24T01:15:37;9.05;;;8.15;;
48516;SDS011;34310;51.904;4.256;2023-01-24T01:18:05;9.27;;;8.15;;
48516;SDS011;34310;51.904;4.256;2023-01-24T01:20:32;8.48;;;7.68;;
48516;SDS011;34310;51.904;4.256;2023-01-24T01:23:00;9.57;;;8.68;;
48516;SDS011;34310;51.904;4.256;2023-01-24T01:25:27;9.15;;;8.25;;
48516;SDS011;34310;51.904;4.256;2023-01-24T01:27:55;8.65;;;7.85;;
48516;SDS011;34310;51.904;4.256;2023-01-24T01:30:23;8.98;;;8.18;;
48516;SDS011;34310;51.904;4.256;2023-01-24T01:32:50;8.80;;;7.68;;
48516;SDS011;34310;51.904;4.256;2023-01-24T01:35:17;9.82;;;8.93;;
48516;SDS011;34310;51.904;4.256;2023-01-24T01:37:45;8.82;;;8.02;;
48516;SDS011;34310;51.904;4.256;2023-01-24T01:40:12;9.32;;;8.43;;
48516;SDS011;34310;51.904;4.256;2023-01-24T01:43:01;9.10;;;8.30;;
48516;SDS011;34310;51.904;4.256;2023-01-24T01:50:41;8.15;;;7.45;;
48516;SDS011;34310;51.904;4.256;2023-01-24T01:53:19;8.70;;;7.90;;
48516;SDS011;34310;51.904;4.256;2023-01-24T01:55:51;8.93;;;8.00;;
48516;SDS011;34310;51.904;4.256;2023-01-24T01:58:26;9.55;;;8.65;;
48516;SDS011;34310;51.904;4.256;2023-01-24T02:00:54;8.88;;;8.07;;
48516;SDS011;34310;51.904;4.256;2023-01-24T02:03:27;9.07;;;8.18;;
48516;SDS011;34310;51.904;4.256;2023-01-24T02:06:06;9.00;;;8.20;;
48516;SDS011;34310;51.904;4.256;2023-01-24T02:08:46;8.82;;;7.93;;
48516;SDS011;34310;51.904;4.256;2023-01-24T02:11:15;9.07;;;8.27;;
48516;SDS011;34310;51.904;4.256;2023-01-24T02:14:02;8.43;;;7.63;;
48516;SDS011;34310;51.904;4.256;2023-01-24T02:16:53;8.90;;;8.05;;
48516;SDS011;34310;51.904;4.256;2023-01-24T02:19:26;8.52;;;7.72;;
48516;SDS011;34310;51.904;4.256;2023-01-24T02:21:57;8.80;;;8.00;;
48516;SDS011;34310;51.904;4.256;2023-01-24T02:24:39;8.88;;;8.07;;
48516;SDS011;34310;51.904;4.256;2023-01-24T02:27:14;8.68;;;7.88;;
48516;SDS011;34310;51.904;4.256;2023-01-24T02:29:41;8.90;;;8.07;;
48516;SDS011;34310;51.904;4.256;2023-01-24T02:32:09;8.23;;;7.40;;
48516;SDS011;34310;51.904;4.256;2023-01-24T02:34:36;8.82;;;8.02;;
48516;SDS011;34310;51.904;4.256;2023-01-24T02:37:04;8.45;;;7.65;;
48516;SDS011;34310;51.904;4.256;2023-01-24T02:39:46;8.85;;;8.05;;
48516;SDS011;34310;51.904;4.256;2023-01-24T02:42:28;8.55;;;7.75;;
48516;SDS011;34310;51.904;4.256;2023-01-24T02:45:04;8.70;;;7.90;;
48516;SDS011;34310;51.904;4.256;2023-01-24T02:47:46;8.90;;;8.10;;
48516;SDS011;34310;51.904;4.256;2023-01-24T02:50:15;8.45;;;7.65;;
48516;SDS011;34310;51.904;4.256;2023-01-24T02:52:45;9.05;;;8.23;;
48516;SDS011;34310;51.904;4.256;2023-01-24T02:55:31;8.75;;;7.95;;
48516;SDS011;34310;51.904;4.256;2023-01-24T02:57:59;8.18;;;7.45;;
48516;SDS011;34310;51.904;4.256;2023-01-24T03:00:37;8.60;;;7.80;;
48516;SDS011;34310;51.904;4.256;2023-01-24T03:03:06;7.85;;;7.15;;
48516;SDS011;34310;51.904;4.256;2023-01-24T03:05:34;8.80;;;7.97;;
48516;SDS011;34310;51.904;4.256;2023-01-24T03:08:21;8.80;;;8.00;;
48516;SDS011;34310;51.904;4.256;2023-01-24T03:10:52;8.65;;;7.85;;
48516;SDS011;34310;51.904;4.256;2023-01-24T03:13:21;8.68;;;7.88;;
48516;SDS011;34310;51.904;4.256;2023-01-24T03:16:07;7.55;;;6.85;;
48516;SDS011;34310;51.904;4.256;2023-01-24T03:18:53;7.80;;;7.10;;
48516;SDS011;34310;51.904;4.256;2023-01-24T03:21:39;7.38;;;6.68;;
48516;SDS011;34310;51.904;4.256;2023-01-24T03:24:25;7.20;;;6.50;;
48516;SDS011;34310;51.904;4.256;2023-01-24T03:27:11;7.15;;;6.45;;
48516;SDS011;34310;51.904;4.256;2023-01-24T03:29:58;7.35;;;6.68;;
48516;SDS011;34310;51.904;4.256;2023-01-24T03:32:44;6.65;;;6.05;;
48516;SDS011;34310;51.904;4.256;2023-01-24T03:35:30;6.90;;;6.30;;
48516;SDS011;34310;51.904;4.256;2023-01-24T03:37:57;7.55;;;6.65;;
48516;SDS011;34310;51.904;4.256;2023-01-24T03:40:43;6.72;;;6.13;;
48516;SDS011;34310;51.904;4.256;2023-01-24T03:43:10;7.28;;;6.60;;
48516;SDS011;34310;51.904;4.256;2023-01-24T03:45:38;6.80;;;6.20;;
48516;SDS011;34310;51.904;4.256;2023-01-24T03:48:07;7.00;;;6.38;;
48516;SDS011;34310;51.904;4.256;2023-01-24T03:50:42;6.82;;;6.22;;
48516;SDS011;34310;51.904;4.256;2023-01-24T03:53:30;6.88;;;6.28;;
48516;SDS011;34310;51.904;4.256;2023-01-24T03:55:58;6.97;;;6.38;;
48516;SDS011;34310;51.904;4.256;2023-01-24T03:58:28;6.63;;;6.05;;
48516;SDS011;34310;51.904;4.256;2023-01-24T04:00:56;6.95;;;6.35;;
48516;SDS011;34310;51.904;4.256;2023-01-24T04:03:24;7.22;;;6.63;;
48516;SDS011;34310;51.904;4.256;2023-01-24T04:05:51;7.05;;;6.35;;
48516;SDS011;34310;51.904;4.256;2023-01-24T04:08:18;7.70;;;7.00;;
48516;SDS011;34310;51.904;4.256;2023-01-24T04:10:46;6.95;;;6.35;;
48516;SDS011;34310;51.904;4.256;2023-01-24T04:13:13;7.35;;;6.75;;
48516;SDS011;34310;51.904;4.256;2023-01-24T04:15:40;7.45;;;6.85;;
48516;SDS011;34310;51.904;4.256;2023-01-24T04:18:10;6.97;;;6.38;;
48516;SDS011;34310;51.904;4.256;2023-01-24T04:20:37;7.00;;;6.40;;
48516;SDS011;34310;51.904;4.256;2023-01-24T04:23:06;7.32;;;6.70;;
48516;SDS011;34310;51.904;4.256;2023-01-24T04:25:34;7.55;;;6.85;;
48516;SDS011;34310;51.904;4.256;2023-01-24T04:28:02;7.45;;;6.75;;
48516;SDS011;34310;51.904;4.256;2023-01-24T04:30:29;7.72;;;7.03;;
48516;SDS011;34310;51.904;4.256;2023-01-24T04:32:56;6.97;;;6.38;;
48516;SDS011;34310;51.904;4.256;2023-01-24T04:35:25;7.40;;;6.70;;
48516;SDS011;34310;51.904;4.256;2023-01-24T04:37:56;7.13;;;6.43;;
48516;SDS011;34310;51.904;4.256;2023-01-24T04:40:25;7.90;;;7.20;;
48516;SDS011;34310;51.904;4.256;2023-01-24T04:42:54;7.57;;;6.88;;
48516;SDS011;34310;51.904;4.256;2023-01-24T04:45:22;8.02;;;7.22;;
48516;SDS011;34310;51.904;4.256;2023-01-24T04:47:50;7.03;;;6.43;;
48516;SDS011;34310;51.904;4.256;2023-01-24T04:50:19;7.47;;;6.72;;
48516;SDS011;34310;51.904;4.256;2023-01-24T04:52:46;7.32;;;6.70;;
48516;SDS011;34310;51.904;4.256;2023-01-24T04:55:13;8.15;;;7.40;;
48516;SDS011;34310;51.904;4.256;2023-01-24T04:57:41;7.70;;;7.00;;
48516;SDS011;34310;51.904;4.256;2023-01-24T05:00:09;7.53;;;6.82;;
48516;SDS011;34310;51.904;4.256;2023-01-24T05:02:36;7.95;;;7.22;;
48516;SDS011;34310;51.904;4.256;2023-01-24T05:05:05;7.68;;;6.97;;
48516;SDS011;34310;51.904;4.256;2023-01-24T05:07:33;7.45;;;6.78;;
48516;SDS011;34310;51.904;4.256;2023-01-24T05:10:00;7.75;;;7.05;;
48516;SDS011;34310;51.904;4.256;2023-01-24T05:12:27;8.43;;;7.63;;
48516;SDS011;34310;51.904;4.256;2023-01-24T05:14:54;8.40;;;7.60;;
48516;SDS011;34310;51.904;4.256;2023-01-24T05:17:22;8.60;;;7.80;;
48516;SDS011;34310;51.904;4.256;2023-01-24T05:19:49;8.18;;;7.38;;
48516;SDS011;34310;51.904;4.256;2023-01-24T05:22:17;8.68;;;7.88;;
48516;SDS011;34310;51.904;4.256;2023-01-24T05:24:44;7.78;;;7.07;;
48516;SDS011;34310;51.904;4.256;2023-01-24T05:27:11;8.68;;;7.88;;
48516;SDS011;34310;51.904;4.256;2023-01-24T05:29:38;8.45;;;7.65;;
48516;SDS011;34310;51.904;4.256;2023-01-24T05:32:06;8.10;;;7.40;;
48516;SDS011;34310;51.904;4.256;2023-01-24T05:34:33;8.30;;;7.60;;
48516;SDS011;34310;51.904;4.256;2023-01-24T05:37:00;8.30;;;7.53;;
48516;SDS011;34310;51.904;4.256;2023-01-24T05:39:28;8.07;;;7.38;;
48516;SDS011;34310;51.904;4.256;2023-01-24T05:41:55;8.95;;;8.05;;
48516;SDS011;34310;51.904;4.256;2023-01-24T05:44:22;8.32;;;7.63;;
48516;SDS011;34310;51.904;4.256;2023-01-24T05:46:49;8.93;;;8.13;;
48516;SDS011;34310;51.904;4.256;2023-01-24T05:49:17;8.23;;;7.53;;
48516;SDS011;34310;51.904;4.256;2023-01-24T05:51:44;9.20;;;8.40;;
48516;SDS011;34310;51.904;4.256;2023-01-24T05:54:11;9.48;;;8.48;;
48516;SDS011;34310;51.904;4.256;2023-01-24T05:56:39;8.70;;;7.90;;
48516;SDS011;34310;51.904;4.256;2023-01-24T05:59:06;9.38;;;8.48;;
48516;SDS011;34310;51.904;4.256;2023-01-24T06:01:33;9.23;;;8.32;;
48516;SDS011;34310;51.904;4.256;2023-01-24T06:04:01;9.20;;;8.32;;
48516;SDS011;34310;51.904;4.256;2023-01-24T06:06:30;9.70;;;8.70;;
48516;SDS011;34310;51.904;4.256;2023-01-24T06:08:58;9.43;;;8.52;;
48516;SDS011;34310;51.904;4.256;2023-01-24T06:11:26;8.85;;;8.05;;
48516;SDS011;34310;51.904;4.256;2023-01-24T06:13:54;8.57;;;7.78;;
48516;SDS011;34310;51.904;4.256;2023-01-24T06:16:23;8.88;;;8.07;;
48516;SDS011;34310;51.904;4.256;2023-01-24T06:18:53;8.55;;;7.75;;
48516;SDS011;34310;51.904;4.256;2023-01-24T06:23:48;8.27;;;7.57;;
48516;SDS011;34310;51.904;4.256;2023-01-24T06:26:15;8.02;;;7.28;;
48516;SDS011;34310;51.904;4.256;2023-01-24T06:28:43;8.43;;;7.63;;
48516;SDS011;34310;51.904;4.256;2023-01-24T06:36:53;7.72;;;6.93;;
48516;SDS011;34310;51.904;4.256;2023-01-24T06:39:26;7.88;;;7.18;;
48516;SDS011;34310;51.904;4.256;2023-01-24T06:41:54;8.07;;;7.35;;
48516;SDS011;34310;51.904;4.256;2023-01-24T06:44:22;8.00;;;7.30;;
48516;SDS011;34310;51.904;4.256;2023-01-24T06:46:49;7.80;;;7.10;;
48516;SDS011;34310;51.904;4.256;2023-01-24T06:49:17;7.75;;;7.00;;
48516;SDS011;34310;51.904;4.256;2023-01-24T06:51:48;8.27;;;7.47;;
48516;SDS011;34310;51.904;4.256;2023-01-24T06:54:16;7.50;;;6.80;;
48516;SDS011;34310;51.904;4.256;2023-01-24T06:56:44;7.70;;;7.00;;
48516;SDS011;34310;51.904;4.256;2023-01-24T06:59:11;8.00;;;7.30;;
48516;SDS011;34310;51.904;4.256;2023-01-24T07:01:38;7.97;;;7.22;;
48516;SDS011;34310;51.904;4.256;2023-01-24T07:04:06;8.02;;;7.32;;
48516;SDS011;34310;51.904;4.256;2023-01-24T07:06:33;7.75;;;7.15;;
48516;SDS011;34310;51.904;4.256;2023-01-24T07:09:00;8.55;;;7.75;;
48516;SDS011;34310;51.904;4.256;2023-01-24T07:11:28;8.48;;;7.68;;
48516;SDS011;34310;51.904;4.256;2023-01-24T07:13:55;8.32;;;7.53;;
48516;SDS011;34310;51.904;4.256;2023-01-24T07:16:23;8.07;;;7.28;;
48516;SDS011;34310;51.904;4.256;2023-01-24T07:18:50;8.45;;;7.65;;
48516;SDS011;34310;51.904;4.256;2023-01-24T07:21:18;8.80;;;8.00;;
48516;SDS011;34310;51.904;4.256;2023-01-24T07:23:46;8.00;;;7.30;;
48516;SDS011;34310;51.904;4.256;2023-01-24T07:26:14;8.23;;;7.43;;
48516;SDS011;34310;51.904;4.256;2023-01-24T07:28:42;8.13;;;7.32;;
48516;SDS011;34310;51.904;4.256;2023-01-24T07:31:10;8.57;;;7.78;;
48516;SDS011;34310;51.904;4.256;2023-01-24T07:33:40;7.97;;;7.28;;
48516;SDS011;34310;51.904;4.256;2023-01-24T07:36:12;7.95;;;7.22;;
48516;SDS011;34310;51.904;4.256;2023-01-24T07:38:40;7.97;;;7.28;;
48516;SDS011;34310;51.904;4.256;2023-01-24T07:41:08;8.95;;;8.15;;
48516;SDS011;34310;51.904;4.256;2023-01-24T07:43:36;7.97;;;7.25;;
48516;SDS011;34310;51.904;4.256;2023-01-24T07:46:04;20.30;;;9.02;;
48516;SDS011;34310;51.904;4.256;2023-01-24T07:48:31;11.77;;;8.98;;
48516;SDS011;34310;51.904;4.256;2023-01-24T07:50:59;9.40;;;8.38;;
48516;SDS011;34310;51.904;4.256;2023-01-24T07:53:27;12.50;;;8.95;;
48516;SDS011;34310;51.904;4.256;2023-01-24T07:55:57;10.45;;;9.05;;
48516;SDS011;34310;51.904;4.256;2023-01-24T07:58:28;10.43;;;9.32;;
48516;SDS011;34310;51.904;4.256;2023-01-24T08:00:56;13.23;;;9.35;;
48516;SDS011;34310;51.904;4.256;2023-01-24T08:03:23;12.00;;;9.95;;
48516;SDS011;34310;51.904;4.256;2023-01-24T08:05:50;11.20;;;9.18;;
48516;SDS011;34310;51.904;4.256;2023-01-24T08:08:18;11.30;;;9.20;;
48516;SDS011;34310;51.904;4.256;2023-01-24T08:10:46;12.23;;;9.70;;
48516;SDS011;34310;51.904;4.256;2023-01-24T08:13:13;11.50;;;9.10;;
48516;SDS011;34310;51.904;4.256;2023-01-24T08:15:40;11.68;;;9.95;;
48516;SDS011;34310;51.904;4.256;2023-01-24T08:18:07;10.80;;;9.40;;
48516;SDS011;34310;51.904;4.256;2023-01-24T08:20:35;12.77;;;9.30;;
48516;SDS011;34310;51.904;4.256;2023-01-24T08:23:02;12.55;;;9.25;;
48516;SDS011;34310;51.904;4.256;2023-01-24T08:25:29;12.10;;;9.75;;
48516;SDS011;34310;51.904;4.256;2023-01-24T08:27:58;12.18;;;9.68;;
48516;SDS011;34310;51.904;4.256;2023-01-24T08:30:25;9.95;;;8.80;;
48516;SDS011;34310;51.904;4.256;2023-01-24T08:33:02;11.18;;;8.57;;
48516;SDS011;34310;51.904;4.256;2023-01-24T08:35:31;9.63;;;8.70;;
48516;SDS011;34310;51.904;4.256;2023-01-24T08:37:59;9.82;;;8.02;;
48516;SDS011;34310;51.904;4.256;2023-01-24T08:40:26;8.85;;;8.00;;
48516;SDS011;34310;51.904;4.256;2023-01-24T08:43:03;9.93;;;7.90;;
48516;SDS011;34310;51.904;4.256;2023-01-24T08:45:30;9.02;;;8.05;;
48516;SDS011;34310;51.904;4.256;2023-01-24T08:47:57;8.63;;;7.72;;
48516;SDS011;34310;51.904;4.256;2023-01-24T08:50:25;8.55;;;7.75;;
48516;SDS011;34310;51.904;4.256;2023-01-24T08:52:53;9.18;;;8.18;;
48516;SDS011;34310;51.904;4.256;2023-01-24T08:55:22;9.57;;;8.02;;
48516;SDS011;34310;51.904;4.256;2023-01-24T08:57:50;9.18;;;8.27;;
48516;SDS011;34310;51.904;4.256;2023-01-24T09:00:17;9.13;;;8.15;;
48516;SDS011;34310;51.904;4.256;2023-01-24T09:02:45;8.88;;;7.97;;
48516;SDS011;34310;51.904;4.256;2023-01-24T09:05:12;9.32;;;8.43;;
48516;SDS011;34310;51.904;4.256;2023-01-24T09:07:39;9.07;;;8.18;;
48516;SDS011;34310;51.904;4.256;2023-01-24T09:10:07;9.43;;;8.40;;
48516;SDS011;34310;51.904;4.256;2023-01-24T09:12:35;9.63;;;8.63;;
48516;SDS011;34310;51.904;4.256;2023-01-24T09:15:03;9.20;;;8.32;;
48516;SDS011;34310;51.904;4.256;2023-01-24T09:17:30;10.00;;;9.00;;
48516;SDS011;34310;51.904;4.256;2023-01-24T09:19:58;9.75;;;8.15;;
48516;SDS011;34310;51.904;4.256;2023-01-24T09:22:26;9.48;;;8.50;;
48516;SDS011;34310;51.904;4.256;2023-01-24T09:24:54;9.68;;;8.70;;
48516;SDS011;34310;51.904;4.256;2023-01-24T09:27:21;9.20;;;8.30;;
48516;SDS011;34310;51.904;4.256;2023-01-24T09:29:48;9.27;;;8.38;;
48516;SDS011;34310;51.904;4.256;2023-01-24T09:32:16;9.68;;;8.57;;
48516;SDS011;34310;51.904;4.256;2023-01-24T09:34:43;10.55;;;9.45;;
48516;SDS011;34310;51.904;4.256;2023-01-24T09:37:20;10.82;;;9.05;;
48516;SDS011;34310;51.904;4.256;2023-01-24T09:39:48;10.55;;;9.45;;
48516;SDS011;34310;51.904;4.256;2023-01-24T09:53:29;9.55;;;8.55;;
48516;SDS011;34310;51.904;4.256;2023-01-24T09:56:04;9.95;;;8.95;;
48516;SDS011;34310;51.904;4.256;2023-01-24T09:58:41;10.20;;;9.20;;
48516;SDS011;34310;51.904;4.256;2023-01-24T10:01:12;10.85;;;9.77;;
48516;SDS011;34310;51.904;4.256;2023-01-24T10:03:41;10.85;;;9.80;;
48516;SDS011;34310;51.904;4.256;2023-01-24T10:06:13;10.90;;;9.80;;
48516;SDS011;34310;51.904;4.256;2023-01-24T10:14:29;9.68;;;8.68;;
48516;SDS011;34310;51.904;4.256;2023-01-24T10:23:14;9.18;;;8.30;;
48516;SDS011;34310;51.904;4.256;2023-01-24T10:26:11;9.48;;;8.48;;
48516;SDS011;34310;51.904;4.256;2023-01-24T10:28:51;9.13;;;8.23;;
48516;SDS011;34310;51.904;4.256;2023-01-24T10:31:27;9.95;;;8.95;;
48516;SDS011;34310;51.904;4.256;2023-01-24T10:34:12;10.00;;;9.00;;
48516;SDS011;34310;51.904;4.256;2023-01-24T10:36:51;9.80;;;8.80;;
48516;SDS011;34310;51.904;4.256;2023-01-24T10:39:25;10.15;;;9.15;;
48516;SDS011;34310;51.904;4.256;2023-01-24T10:41:53;10.02;;;9.02;;
48516;SDS011;34310;51.904;4.256;2023-01-24T10:50:00;9.98;;;8.93;;
48516;SDS011;34310;51.904;4.256;2023-01-24T10:52:32;10.05;;;9.13;;
48516;SDS011;34310;51.904;4.256;2023-01-24T10:55:00;10.57;;;9.52;;
48516;SDS011;34310;51.904;4.256;2023-01-24T10:57:33;10.32;;;9.32;;
48516;SDS011;34310;51.904;4.256;2023-01-24T11:00:31;10.52;;;9.52;;
48516;SDS011;34310;51.904;4.256;2023-01-24T11:03:09;10.60;;;9.50;;
48516;SDS011;34310;51.904;4.256;2023-01-24T11:05:48;11.25;;;10.05;;
48516;SDS011;34310;51.904;4.256;2023-01-24T11:08:20;10.93;;;9.75;;
48516;SDS011;34310;51.904;4.256;2023-01-24T11:10:53;10.82;;;9.73;;
48516;SDS011;34310;51.904;4.256;2023-01-24T11:16:01;11.10;;;9.90;;
48516;SDS011;34310;51.904;4.256;2023-01-24T11:21:17;10.93;;;9.82;;
48516;SDS011;34310;51.904;4.256;2023-01-24T11:23:45;11.73;;;10.23;;
48516;SDS011;34310;51.904;4.256;2023-01-24T11:26:36;10.73;;;9.57;;
48516;SDS011;34310;51.904;4.256;2023-01-24T11:29:18;11.82;;;10.48;;
48516;SDS011;34310;51.904;4.256;2023-01-24T11:31:49;11.80;;;10.60;;
48516;SDS011;34310;51.904;4.256;2023-01-24T11:34:23;15.40;;;11.43;;
48516;SDS011;34310;51.904;4.256;2023-01-24T11:39:56;12.20;;;9.82;;
48516;SDS011;34310;51.904;4.256;2023-01-24T11:43:12;10.50;;;9.40;;
48516;SDS011;34310;51.904;4.256;2023-01-24T11:46:04;10.52;;;9.43;;
48516;SDS011;34310;51.904;4.256;2023-01-24T11:48:51;10.23;;;8.93;;
48516;SDS011;34310;51.904;4.256;2023-01-24T12:02:59;10.10;;;8.90;;
48516;SDS011;34310;51.904;4.256;2023-01-24T12:08:17;10.65;;;9.55;;
48516;SDS011;34310;51.904;4.256;2023-01-24T12:13:47;10.35;;;9.25;;
48516;SDS011;34310;51.904;4.256;2023-01-24T12:16:31;11.15;;;9.85;;
48516;SDS011;34310;51.904;4.256;2023-01-24T12:19:25;10.25;;;9.25;;
48516;SDS011;34310;51.904;4.256;2023-01-24T12:21:56;10.30;;;9.20;;
48516;SDS011;34310;51.904;4.256;2023-01-24T12:24:25;10.82;;;9.73;;
48516;SDS011;34310;51.904;4.256;2023-01-24T12:26:59;10.75;;;9.65;;
48516;SDS011;34310;51.904;4.256;2023-01-24T12:29:38;11.18;;;9.88;;
48516;SDS011;34310;51.904;4.256;2023-01-24T12:40:36;12.45;;;10.70;;
48516;SDS011;34310;51.904;4.256;2023-01-24T12:46:35;12.57;;;10.55;;
48516;SDS011;34310;51.904;4.256;2023-01-24T12:49:24;11.60;;;10.32;;
48516;SDS011;34310;51.904;4.256;2023-01-24T12:57:32;11.77;;;10.05;;
48516;SDS011;34310;51.904;4.256;2023-01-24T13:00:18;12.57;;;11.27;;
48516;SDS011;34310;51.904;4.256;2023-01-24T13:02:59;11.75;;;10.55;;
48516;SDS011;34310;51.904;4.256;2023-01-24T13:08:23;11.23;;;10.13;;
48516;SDS011;34310;51.904;4.256;2023-01-24T13:13:44;10.60;;;9.50;;
48516;SDS011;34310;51.904;4.256;2023-01-24T13:19:24;10.80;;;9.70;;
48516;SDS011;34310;51.904;4.256;2023-01-24T13:27:29;11.02;;;9.90;;
48516;SDS011;34310;51.904;4.256;2023-01-24T13:30:14;10.27;;;9.23;;
48516;SDS011;34310;51.904;4.256;2023-01-24T13:32:43;10.95;;;9.85;;
48516;SDS011;34310;51.904;4.256;2023-01-24T13:35:14;11.07;;;9.90;;
48516;SDS011;34310;51.904;4.256;2023-01-24T13:37:59;12.88;;;9.93;;
48516;SDS011;34310;51.904;4.256;2023-01-24T13:40:27;10.98;;;9.88;;
48516;SDS011;34310;51.904;4.256;2023-01-24T13:43:01;10.15;;;9.15;;
48516;SDS011;34310;51.904;4.256;2023-01-24T13:48:42;11.38;;;10.23;;
48516;SDS011;34310;51.904;4.256;2023-01-24T14:02:41;11.77;;;10.32;;
48516;SDS011;34310;51.904;4.256;2023-01-24T14:07:56;11.60;;;9.88;;
48516;SDS011;34310;51.904;4.256;2023-01-24T14:10:36;11.07;;;9.90;;
48516;SDS011;34310;51.904;4.256;2023-01-24T14:13:05;11.45;;;10.25;;
48516;SDS011;34310;51.904;4.256;2023-01-24T14:16:11;12.07;;;10.13;;
48516;SDS011;34310;51.904;4.256;2023-01-24T14:18:58;11.27;;;10.02;;
48516;SDS011;34310;51.904;4.256;2023-01-24T14:27:01;11.52;;;10.27;;
48516;SDS011;34310;51.904;4.256;2023-01-24T14:29:45;11.45;;;9.35;;
48516;SDS011;34310;51.904;4.256;2023-01-24T14:32:17;10.35;;;9.27;;
48516;SDS011;34310;51.904;4.256;2023-01-24T14:37:46;9.93;;;8.93;;
48516;SDS011;34310;51.904;4.256;2023-01-24T14:40:23;10.25;;;9.15;;
48516;SDS011;34310;51.904;4.256;2023-01-24T14:43:00;10.30;;;9.18;;
48516;SDS011;34310;51.904;4.256;2023-01-24T14:45:32;10.73;;;9.63;;
48516;SDS011;34310;51.904;4.256;2023-01-24T14:48:00;10.30;;;9.20;;
48516;SDS011;34310;51.904;4.256;2023-01-24T14:50:35;10.25;;;9.18;;
48516;SDS011;34310;51.904;4.256;2023-01-24T14:55:56;9.18;;;8.27;;
48516;SDS011;34310;51.904;4.256;2023-01-24T14:58:28;12.20;;;8.55;;
48516;SDS011;34310;51.904;4.256;2023-01-24T15:00:59;10.15;;;8.88;;
48516;SDS011;34310;51.904;4.256;2023-01-24T15:03:29;9.75;;;8.75;;
48516;SDS011;34310;51.904;4.256;2023-01-24T15:06:00;9.77;;;8.77;;
48516;SDS011;34310;51.904;4.256;2023-01-24T15:08:29;9.48;;;8.55;;
48516;SDS011;34310;51.904;4.256;2023-01-24T15:10:58;10.23;;;9.13;;
48516;SDS011;34310;51.904;4.256;2023-01-24T15:13:41;9.55;;;8.55;;
48516;SDS011;34310;51.904;4.256;2023-01-24T15:18:55;10.07;;;8.77;;
48516;SDS011;34310;51.904;4.256;2023-01-24T15:21:31;10.48;;;9.45;;
48516;SDS011;34310;51.904;4.256;2023-01-24T15:24:01;10.02;;;8.98;;
48516;SDS011;34310;51.904;4.256;2023-01-24T15:29:33;10.25;;;9.25;;
48516;SDS011;34310;51.904;4.256;2023-01-24T15:32:02;10.05;;;8.95;;
48516;SDS011;34310;51.904;4.256;2023-01-24T15:34:48;10.20;;;9.20;;
48516;SDS011;34310;51.904;4.256;2023-01-24T15:37:15;10.13;;;9.05;;
48516;SDS011;34310;51.904;4.256;2023-01-24T15:39:43;10.85;;;9.75;;
48516;SDS011;34310;51.904;4.256;2023-01-24T15:42:17;10.93;;;9.30;;
48516;SDS011;34310;51.904;4.256;2023-01-24T15:45:04;11.32;;;9.77;;
48516;SDS011;34310;51.904;4.256;2023-01-24T15:47:32;10.50;;;9.40;;
48516;SDS011;34310;51.904;4.256;2023-01-24T15:50:16;9.85;;;8.77;;
48516;SDS011;34310;51.904;4.256;2023-01-24T15:55:54;9.20;;;8.25;;
48516;SDS011;34310;51.904;4.256;2023-01-24T15:58:29;9.32;;;8.43;;
48516;SDS011;34310;51.904;4.256;2023-01-24T16:00:59;9.10;;;8.20;;
48516;SDS011;34310;51.904;4.256;2023-01-24T16:03:27;9.35;;;8.38;;
48516;SDS011;34310;51.904;4.256;2023-01-24T16:05:55;10.05;;;8.98;;
48516;SDS011;34310;51.904;4.256;2023-01-24T16:08:22;10.40;;;8.57;;
48516;SDS011;34310;51.904;4.256;2023-01-24T16:10:51;10.52;;;8.68;;
48516;SDS011;34310;51.904;4.256;2023-01-24T16:13:26;9.38;;;8.48;;
48516;SDS011;34310;51.904;4.256;2023-01-24T16:16:07;9.47;;;8.53;;
48516;SDS011;34310;51.904;4.256;2023-01-24T16:18:36;9.50;;;8.50;;
48516;SDS011;34310;51.904;4.256;2023-01-24T16:21:04;9.75;;;8.75;;
48516;SDS011;34310;51.904;4.256;2023-01-24T16:23:31;9.27;;;8.30;;
48516;SDS011;34310;51.904;4.256;2023-01-24T16:25:59;9.48;;;8.48;;
48516;SDS011;34310;51.904;4.256;2023-01-24T16:28:26;9.20;;;8.27;;
48516;SDS011;34310;51.904;4.256;2023-01-24T16:30:59;9.77;;;8.77;;
48516;SDS011;34310;51.904;4.256;2023-01-24T16:33:28;10.82;;;9.73;;
48516;SDS011;34310;51.904;4.256;2023-01-24T16:35:55;10.93;;;9.43;;
48516;SDS011;34310;51.904;4.256;2023-01-24T16:38:23;10.05;;;9.05;;
48516;SDS011;34310;51.904;4.256;2023-01-24T16:40:50;9.95;;;8.93;;
48516;SDS011;34310;51.904;4.256;2023-01-24T16:43:19;10.23;;;9.13;;
48516;SDS011;34310;51.904;4.256;2023-01-24T16:45:48;10.50;;;9.32;;
48516;SDS011;34310;51.904;4.256;2023-01-24T16:48:17;10.13;;;9.05;;
48516;SDS011;34310;51.904;4.256;2023-01-24T16:50:44;10.57;;;9.48;;
48516;SDS011;34310;51.904;4.256;2023-01-24T16:53:13;10.70;;;9.60;;
48516;SDS011;34310;51.904;4.256;2023-01-24T16:55:41;11.35;;;9.77;;
48516;SDS011;34310;51.904;4.256;2023-01-24T16:58:09;12.00;;;9.45;;
48516;SDS011;34310;51.904;4.256;2023-01-24T17:00:38;10.23;;;9.23;;
48516;SDS011;34310;51.904;4.256;2023-01-24T17:03:06;10.30;;;9.30;;
48516;SDS011;34310;51.904;4.256;2023-01-24T17:05:33;11.07;;;9.70;;
48516;SDS011;34310;51.904;4.256;2023-01-24T17:08:04;11.75;;;9.82;;
48516;SDS011;34310;51.904;4.256;2023-01-24T17:10:31;11.98;;;10.00;;
48516;SDS011;34310;51.904;4.256;2023-01-24T17:12:59;11.23;;;8.88;;
48516;SDS011;34310;51.904;4.256;2023-01-24T17:15:26;11.40;;;9.98;;
48516;SDS011;34310;51.904;4.256;2023-01-24T17:17:54;11.52;;;10.32;;
48516;SDS011;34310;51.904;4.256;2023-01-24T17:20:21;12.45;;;10.70;;
48516;SDS011;34310;51.904;4.256;2023-01-24T17:22:48;17.23;;;11.40;;
48516;SDS011;34310;51.904;4.256;2023-01-24T17:25:16;18.50;;;11.48;;